M I D A S
Marine Information and Data Acquisition System
Tripno 1010 of the Zeeleeuw from 2005-01-17 08:11:22 to 2005-01-17 12:48:56
Back to CruiseResearch ActivitiesStationsMapUnderway DataData graphs

EquipmentUnitsComment
TimeDGPSUTC
LatitudeDGPSDM.mWGS84
LongitudeDGPSDM.mWGS84
HeadingGyrodeg 
SOGDGPSknotsSpeed over ground
COGDGPSdegCourse over ground
DepthEcho soundermeters200 kHz
Missing or incorrect values are displayed as -999
Navigation data collected by the RV Zeeleeuw from 2005-01-17 08:11:22 to 2005-01-17 12:48:56
                                                                                    Next 1000 lines
Time Latitude Longitude Heading SOG COG Depth
2005-01-17 08:11:30 51°13.596 2°56.1 126.3 0.1 181 8.7
2005-01-17 08:11:36 51°13.596 2°56.1 126.6 0.1 169 8.7
2005-01-17 08:11:41 51°13.596 2°56.101 126.8 0.1 150 8.6
2005-01-17 08:11:45 51°13.596 2°56.101 127 0.1 120 8.7
2005-01-17 08:11:51 51°13.596 2°56.101 127 0.1 132 8.7
2005-01-17 08:11:56 51°13.596 2°56.102 126.8 0.1 93 8.7
2005-01-17 08:12:01 51°13.596 2°56.102 126.4 0.1 171 8.7
2005-01-17 08:12:06 51°13.596 2°56.102 126.1   111 8.7
2005-01-17 08:12:11 51°13.596 2°56.102 126.1   179 8.8
2005-01-17 08:12:16 51°13.596 2°56.102 126.3   267 8.8
2005-01-17 08:12:20 51°13.596 2°56.102 126.7   223 8.7
2005-01-17 08:12:25 51°13.596 2°56.102 126.9   146 8.7
2005-01-17 08:12:30 51°13.596 2°56.102 126.9   125 8.7
2005-01-17 08:12:36 51°13.595 2°56.102 126.3 0.1 155 8.7
2005-01-17 08:12:40 51°13.595 2°56.102 125.4 0.1 150 8.7
2005-01-17 08:12:44 51°13.595 2°56.102 124 0.1 186 8.7
2005-01-17 08:12:50 51°13.595 2°56.102 122.4 0.1 189 8.7
2005-01-17 08:12:56 51°13.594 2°56.102 121.5 0.2 199 8.7
2005-01-17 08:13:00 51°13.594 2°56.102 120.3 0.1 189 8.7
2005-01-17 08:13:06 51°13.594 2°56.102 119 0.1 193 8.7
2005-01-17 08:13:11 51°13.594 2°56.102 117.6 0.1 194 8.7
2005-01-17 08:13:16 51°13.594 2°56.102 116.2 0.1 230 8.8
2005-01-17 08:13:20 51°13.594 2°56.101 115.3 0.5 287 8.7
2005-01-17 08:13:26 51°13.595 2°56.099 114.7 0.6 288 8.7
2005-01-17 08:13:31 51°13.595 2°56.096 114.6 1.1 290 8.6
2005-01-17 08:13:36 51°13.596 2°56.093 114.6 1.4 292 8.6
2005-01-17 08:13:41 51°13.597 2°56.089 114.9 1.8 293 8.5
2005-01-17 08:13:46 51°13.598 2°56.085 115.4 2.1 294 7.8
2005-01-17 08:13:52 51°13.6 2°56.079 116 2.4 296 -999
2005-01-17 08:13:57 51°13.602 2°56.074 116.2 2.7 295 -999
2005-01-17 08:14:02 51°13.604 2°56.068 116.2 2.9 296 -999
2005-01-17 08:14:06 51°13.605 2°56.063 116.1 3 295 -999
2005-01-17 08:14:12 51°13.608 2°56.055 116 3.2 295 -999
2005-01-17 08:14:17 51°13.61 2°56.048 115.8 3.3 295 -999
2005-01-17 08:14:22 51°13.612 2°56.041 115.8 3.4 295 -999
2005-01-17 08:14:26 51°13.614 2°56.035 115.7 3.5 294 -999
2005-01-17 08:14:32 51°13.616 2°56.026 115.7 3.6 294 -999
2005-01-17 08:14:37 51°13.618 2°56.019 116 3.7 294 -999
2005-01-17 08:14:42 51°13.619 2°56.011 116.3 3.8 293 -999
2005-01-17 08:14:46 51°13.621 2°56.005 117 3.9 294 -999
2005-01-17 08:14:52 51°13.624 2°55.995 117.5 4 294 -999
2005-01-17 08:14:56 51°13.626 2°55.989 118 4.1 294 -999
2005-01-17 08:15:02 51°13.629 2°55.978 118.3 4.2 295 -999
2005-01-17 08:15:06 51°13.631 2°55.971 118.3 4.4 295 -999
2005-01-17 08:15:12 51°13.635 2°55.96 118.3 4.4 295 -999
2005-01-17 08:15:17 51°13.637 2°55.951 118.5 4.6 295 -999
2005-01-17 08:15:22 51°13.64 2°55.941 118.6 4.7 295 -999
2005-01-17 08:15:26 51°13.642 2°55.934 118.7 4.8 295 -999
2005-01-17 08:15:32 51°13.645 2°55.922 118.7 4.9 295 -999
2005-01-17 08:15:37 51°13.648 2°55.912 118.7 4.9 295 -999
2005-01-17 08:15:42 51°13.651 2°55.902 118.7 5 295 -999
2005-01-17 08:15:46 51°13.653 2°55.894 118.7 5 295 -999
2005-01-17 08:15:52 51°13.657 2°55.882 118.6 5.1 295 -999
2005-01-17 08:15:57 51°13.66 2°55.872 118.4 5.2 295 -999
2005-01-17 08:16:02 51°13.663 2°55.861 118.3 5.2 295 -999
2005-01-17 08:16:06 51°13.666 2°55.853 118.3 5.3 295 -999
2005-01-17 08:16:12 51°13.67 2°55.84 118 5.2 295 -999
2005-01-17 08:16:17 51°13.673 2°55.83 117.6 5.2 294 -999
2005-01-17 08:16:21 51°13.675 2°55.822 116.9 5.1 294 -999
2005-01-17 08:16:26 51°13.678 2°55.812 115.9 5 294 -999
2005-01-17 08:16:32 51°13.681 2°55.8 114.7 4.8 294 -999
2005-01-17 08:16:36 51°13.683 2°55.793 113.6 4.6 292 -999
2005-01-17 08:16:42 51°13.686 2°55.782 111.9 4.5 292 -999
2005-01-17 08:16:46 51°13.688 2°55.775 110 4.3 291 -999
2005-01-17 08:16:52 51°13.69 2°55.765 108.1 4.2 290 14.8
2005-01-17 08:16:56 51°13.691 2°55.759 106.7 4 289 -999
2005-01-17 08:17:01 51°13.693 2°55.752 105.2 3.2 287 15.1
2005-01-17 08:17:06 51°13.694 2°55.748 102.2 2.4 288 15.2
2005-01-17 08:17:09 51°13.694 2°55.746 97.8 1.4 288 14.9
2005-01-17 08:17:16 51°13.695 2°55.744 92.3 1.2 290 14.8
2005-01-17 08:17:20 51°13.695 2°55.744 86.8 0.9 303 15
2005-01-17 08:17:25 51°13.696 2°55.744 81.2 0.5 358 14.9
2005-01-17 08:17:29 51°13.697 2°55.744 75.3 0.6 26 14.7
2005-01-17 08:17:36 51°13.699 2°55.747 68.9 1 39 14.6
2005-01-17 08:17:41 51°13.7 2°55.749 62.4 1.4 42 14.7
2005-01-17 08:17:46 51°13.703 2°55.752 55.8 1.7 38 15
2005-01-17 08:17:51 51°13.705 2°55.754 49.2 2 37 15.3
2005-01-17 08:17:56 51°13.708 2°55.756 42.7 2 29 14.9
2005-01-17 08:18:01 51°13.709 2°55.757 38.4 1.4 28 14.7
2005-01-17 08:18:06 51°13.71 2°55.758 35 1 22 14.9
2005-01-17 08:18:10 51°13.711 2°55.758 31.4 0.7 7 15
2005-01-17 08:18:16 51°13.712 2°55.757 28.9 0.4 356 14.9
2005-01-17 08:18:21 51°13.712 2°55.757 27 0.3 305 15
2005-01-17 08:18:26 51°13.711 2°55.756 25.5 0.4 239 15
2005-01-17 08:18:32 51°13.71 2°55.755 24.3 0.5 239 14.9
2005-01-17 08:18:36 51°13.71 2°55.754 23.2 0.8 213 14.8
2005-01-17 08:18:40 51°13.709 2°55.753 22.1 0.9 212 5.5
2005-01-17 08:18:46 51°13.707 2°55.752 21.3 0.8 210 -999
2005-01-17 08:18:52 51°13.707 2°55.751 20.3 0.7 228 -999
2005-01-17 08:18:56 51°13.708 2°55.751 18 0.4 330 -999
2005-01-17 08:19:02 51°13.709 2°55.75 13.6 0.7 338 -999
2005-01-17 08:19:06 51°13.71 2°55.75 8.7 0.9 352 -999
2005-01-17 08:19:12 51°13.713 2°55.749 3.2 1.3 346 4.9
2005-01-17 08:19:16 51°13.714 2°55.748 357.7 1.4 348 14.4
2005-01-17 08:19:20 51°13.716 2°55.747 353.1 1.9 340 13.9
2005-01-17 08:19:26 51°13.72 2°55.745 348.5 2.2 340 13.4
2005-01-17 08:19:30 51°13.722 2°55.742 342.5 2.5 334 12.3
2005-01-17 08:19:36 51°13.727 2°55.738 337.3 3.1 332 11.9
2005-01-17 08:19:40 51°13.731 2°55.734 333.5 3.8 328 11.9
2005-01-17 08:19:46 51°13.737 2°55.728 331.1 4.3 327 11.9
2005-01-17 08:19:50 51°13.742 2°55.723 329.8 4.4 326 11.2
2005-01-17 08:19:56 51°13.749 2°55.715 329.5 5 326 11.4
2005-01-17 08:20:01 51°13.756 2°55.709 329.9 5.6 327 11.4
2005-01-17 08:20:06 51°13.763 2°55.701 330.5 4.6 327 11.1
2005-01-17 08:20:11 51°13.771 2°55.694 331.6 6 329 11.2
2005-01-17 08:20:16 51°13.779 2°55.686 332 6.5 329 11.2
2005-01-17 08:20:21 51°13.787 2°55.678 331.9 6.6 328 11.2
2005-01-17 08:20:24 51°13.792 2°55.673 331.6 7 327 11.4
2005-01-17 08:20:29 51°13.8 2°55.664 331.3 7.3 326 11.7
2005-01-17 08:20:36 51°13.812 2°55.651 331.7 7.5 326 11.8
2005-01-17 08:20:41 51°13.822 2°55.642 333.1 7.7 328 12
2005-01-17 08:20:46 51°13.831 2°55.634 335.2 7.9 330 11.7
2005-01-17 08:20:52 51°13.843 2°55.624 336.7 8 331 11.9
2005-01-17 08:20:56 51°13.851 2°55.617 337.5 8.2 332 11.7
2005-01-17 08:21:01 51°13.862 2°55.608 337.9 8.4 333 11.8
2005-01-17 08:21:06 51°13.873 2°55.6 338.4 8.4 334 11.8
2005-01-17 08:21:10 51°13.881 2°55.594 339.1 8.6 335 11.3
2005-01-17 08:21:16 51°13.895 2°55.584 339.2 8.7 334 11.5
2005-01-17 08:21:20 51°13.903 2°55.578 339.1 8.8 336 11.6
2005-01-17 08:21:24 51°13.913 2°55.572 339.2 8.9 335 11.6
2005-01-17 08:21:30 51°13.926 2°55.562 339.6 8.9 336 11.6
2005-01-17 08:21:36 51°13.94 2°55.552 339.7 9 336 11.1
2005-01-17 08:21:40 51°13.949 2°55.545 339.3 9 335 11.3
2005-01-17 08:21:46 51°13.962 2°55.535 339.1 9.1 335 11.4
2005-01-17 08:21:51 51°13.974 2°55.527 339.1 9.1 335 11.6
2005-01-17 08:21:56 51°13.985 2°55.518 339 9.1 334 11.6
2005-01-17 08:22:00 51°13.994 2°55.511 338.7 9.1 334 11.6
2005-01-17 08:22:06 51°14.008 2°55.5 338.8 9.1 334 11.3
2005-01-17 08:22:09 51°14.015 2°55.495 339.4 9.1 335 11.1
2005-01-17 08:22:16 51°14.031 2°55.483 339.8 9.1 335 11.1
2005-01-17 08:22:20 51°14.04 2°55.477 340.4 9.2 336 10.8
2005-01-17 08:22:26 51°14.054 2°55.466 340.7 9.2 336 11
2005-01-17 08:22:31 51°14.067 2°55.457 340.4 9.5 335 10.8
2005-01-17 08:22:36 51°14.079 2°55.448 339.9 9.7 335 10.7
2005-01-17 08:22:41 51°14.092 2°55.439 340.4 10 336 10.7
2005-01-17 08:22:46 51°14.105 2°55.43 340.8 10.1 336 10.7
2005-01-17 08:22:51 51°14.118 2°55.42 340.1 10.3 335 10.7
2005-01-17 08:22:56 51°14.131 2°55.41 339.4 10.4 335 10.9
2005-01-17 08:23:01 51°14.144 2°55.4 339.2 10.5 334 11.3
2005-01-17 08:23:06 51°14.157 2°55.389 338 10.6 333 11.1
2005-01-17 08:23:12 51°14.173 2°55.374 336.2 10.6 333 11.4
2005-01-17 08:23:16 51°14.183 2°55.365 335.3 10.7 330 12.1
2005-01-17 08:23:21 51°14.196 2°55.352 334 10.7 328 12.1
2005-01-17 08:23:26 51°14.208 2°55.338 331.1 10.8 325 11.6
2005-01-17 08:23:30 51°14.217 2°55.326 328.5 10.8 322 11.5
2005-01-17 08:23:36 51°14.231 2°55.308 326.8 10.9 322 12
2005-01-17 08:23:41 51°14.243 2°55.291 324.5 11 319 12.2
2005-01-17 08:23:46 51°14.254 2°55.274 322.8 11.2 317 11.8
2005-01-17 08:23:52 51°14.267 2°55.252 320.8 11.2 316 11.7
2005-01-17 08:23:56 51°14.276 2°55.237 318.8 11.4 313 11.9
2005-01-17 08:24:01 51°14.286 2°55.218 316.2 11.6 310 11.7
2005-01-17 08:24:05 51°14.295 2°55.202 314.3 11.7 310 11.5
2005-01-17 08:24:11 51°14.307 2°55.177 313.5 11.7 309 11.4
2005-01-17 08:24:16 51°14.317 2°55.157 313.3 11.8 308 11.4
2005-01-17 08:24:21 51°14.327 2°55.136 312.9 11.9 308 11.4
2005-01-17 08:24:26 51°14.337 2°55.115 312.1 11.9 307 11.3
2005-01-17 08:24:31 51°14.347 2°55.095 312 12 308 11.2
2005-01-17 08:24:36 51°14.358 2°55.074 313 12 309 11.4
2005-01-17 08:24:40 51°14.367 2°55.058 314.4 12.1 311 11.7
2005-01-17 08:24:46 51°14.38 2°55.034 315.9 12.1 312 11.8
2005-01-17 08:24:50 51°14.39 2°55.019 317.1 12.2 313 11.9
2005-01-17 08:24:56 51°14.404 2°54.996 318.4 12.2 314 12
2005-01-17 08:25:01 51°14.416 2°54.977 319.3 12.2 314 11.9
2005-01-17 08:25:06 51°14.429 2°54.958 320.5 12.2 316 11.9
2005-01-17 08:25:10 51°14.438 2°54.944 321.5 12.2 317 11.8
2005-01-17 08:25:16 51°14.454 2°54.922 322.7 12.2 318 11.8
2005-01-17 08:25:21 51°14.467 2°54.905 323.9 12.2 320 11.5
2005-01-17 08:25:25 51°14.477 2°54.891 324.5 12.2 320 11.3
2005-01-17 08:25:29 51°14.488 2°54.877 324.8 12.2 320 11.1
2005-01-17 08:25:36 51°14.506 2°54.854 324.9 12.2 320 11.1
2005-01-17 08:25:40 51°14.516 2°54.84 324.6 12.3 320 11.1
2005-01-17 08:25:45 51°14.529 2°54.822 324.2 12.3 320 11.1
2005-01-17 08:25:49 51°14.54 2°54.808 323.8 12.3 320 11
2005-01-17 08:25:56 51°14.558 2°54.784 324.3 12.3 321 11
2005-01-17 08:26:01 51°14.572 2°54.768 325.6 12.3 323 10.9
2005-01-17 08:26:06 51°14.586 2°54.753 327.1 12.3 324 10.8
2005-01-17 08:26:10 51°14.598 2°54.74 327.9 12.3 325 10.7
2005-01-17 08:26:16 51°14.614 2°54.721 328.2 12.3 324 10.7
2005-01-17 08:26:21 51°14.628 2°54.706 328.2 12.3 324 10.6
2005-01-17 08:26:26 51°14.643 2°54.69 328.2 12.3 324 10.6
2005-01-17 08:26:31 51°14.656 2°54.674 328.2 12.3 325 10.6
2005-01-17 08:26:36 51°14.67 2°54.659 328.2 12.2 325 10.5
2005-01-17 08:26:41 51°14.684 2°54.643 328.3 12.2 325 10.7
2005-01-17 08:26:46 51°14.698 2°54.627 328.3 12.2 325 10.8
2005-01-17 08:26:49 51°14.706 2°54.618 328.4 12.2 325 10.7
2005-01-17 08:26:56 51°14.726 2°54.597 328.8 12.2 325 10.7
2005-01-17 08:27:01 51°14.74 2°54.582 329 12.2 325 10.7
2005-01-17 08:27:06 51°14.754 2°54.567 329.1 12.2 326 10.6
2005-01-17 08:27:09 51°14.763 2°54.558 329.3 12.2 326 10.6
2005-01-17 08:27:16 51°14.782 2°54.537 329.5 12.2 327 10.6
2005-01-17 08:27:20 51°14.794 2°54.525 329.6 12.2 326 10.7
2005-01-17 08:27:26 51°14.811 2°54.507 329.5 12.2 326 10.5
2005-01-17 08:27:29 51°14.819 2°54.498 329.1 12.2 326 10.7
2005-01-17 08:27:36 51°14.839 2°54.477 329 12.2 326 10.5
2005-01-17 08:27:41 51°14.853 2°54.462 329.1 12.2 326 10.5
2005-01-17 08:27:44 51°14.862 2°54.453 328.9 12.3 327 10.4
2005-01-17 08:27:49 51°14.876 2°54.438 328.9 12.2 327 10.3
2005-01-17 08:27:56 51°14.896 2°54.418 329 11.9 327 10.2
2005-01-17 08:28:00 51°14.906 2°54.408 329 11.1 327 9.9
2005-01-17 08:28:06 51°14.921 2°54.392 328.9 11.1 327 10
2005-01-17 08:28:11 51°14.932 2°54.38 328.1 10.2 326 9.8
2005-01-17 08:28:16 51°14.942 2°54.368 327.4 9.8 326 9.8
2005-01-17 08:28:21 51°14.952 2°54.357 326.4 9.1 324 9.8
2005-01-17 08:28:26 51°14.962 2°54.345 325.6 8.8 324 9.7
2005-01-17 08:28:31 51°14.971 2°54.334 324.4 8.5 323 9.7
2005-01-17 08:28:36 51°14.98 2°54.324 323.9 8.2 324 9.6
2005-01-17 08:28:40 51°14.987 2°54.316 324 7.7 324 9.6
2005-01-17 08:28:46 51°14.997 2°54.305 324.8 7.5 325 9.6
2005-01-17 08:28:50 51°15.004 2°54.298 325.8 7.2 327 9.6
2005-01-17 08:28:56 51°15.014 2°54.288 327.3 7.1 328 9.6
2005-01-17 08:29:00 51°15.021 2°54.282 328.9 6.9 329 9.7
2005-01-17 08:29:06 51°15.03 2°54.273 330.2 6.7 330 9.7
2005-01-17 08:29:10 51°15.036 2°54.267 330.9 6.6 330 9.7
2005-01-17 08:29:16 51°15.045 2°54.259 331.1 6.5 330 9.6
2005-01-17 08:29:20 51°15.051 2°54.253 331 6.3 330 9.7
2005-01-17 08:29:25 51°15.059 2°54.246 330.2 6.2 329 9.7
2005-01-17 08:29:28 51°15.063 2°54.242 329.5 6 328 9.8
2005-01-17 08:29:36 51°15.075 2°54.231 329 6 328 9.8
2005-01-17 08:29:41 51°15.082 2°54.224 328.8 5.8 328 9.9
2005-01-17 08:29:45 51°15.087 2°54.219 328.9 5.8 329 9.9
2005-01-17 08:29:52 51°15.097 2°54.21 329.1 5.8 329 10
2005-01-17 08:29:56 51°15.102 2°54.206 329.6 5.7 330 9.9
2005-01-17 08:30:00 51°15.108 2°54.201 330.2 5.5 331 9.9
2005-01-17 08:30:06 51°15.117 2°54.194 330.8 5.4 331 10
2005-01-17 08:30:09 51°15.12 2°54.19 330.9 5.4 332 9.9
2005-01-17 08:30:16 51°15.129 2°54.183 331.3 5.3 331 10
2005-01-17 08:30:21 51°15.136 2°54.177 331.2 5.3 332 10
2005-01-17 08:30:25 51°15.141 2°54.173 330.8 5.2 330 10.1
2005-01-17 08:30:29 51°15.146 2°54.168 330 5.2 329 10.1
2005-01-17 08:30:36 51°15.154 2°54.16 329.5 5.1 329 10.1
2005-01-17 08:30:41 51°15.16 2°54.154 329 5.1 329 10.2
2005-01-17 08:30:46 51°15.166 2°54.148 328.7 5 328 10.2
2005-01-17 08:30:50 51°15.171 2°54.143 328.7 5 328 10.2
2005-01-17 08:30:56 51°15.178 2°54.136 328.3 5 328 10.2
2005-01-17 08:31:00 51°15.183 2°54.131 327.8 5 328 10.2
2005-01-17 08:31:06 51°15.19 2°54.124 327.3 5 327 10.3
2005-01-17 08:31:11 51°15.196 2°54.118 326.8 4.9 327 10.4
2005-01-17 08:31:16 51°15.201 2°54.113 326.3 4.9 326 10.3
2005-01-17 08:31:20 51°15.206 2°54.108 325.9 4.9 326 10.3
2005-01-17 08:31:26 51°15.212 2°54.1 325.3 4.9 325 10.3
2005-01-17 08:31:31 51°15.218 2°54.094 325 4.8 327 10.4
2005-01-17 08:31:36 51°15.224 2°54.088 324.8 4.8 326 10.4
2005-01-17 08:31:41 51°15.229 2°54.084 325 4.7 330 10.2
2005-01-17 08:31:46 51°15.235 2°54.078 325.8 4.6 329 10.2
2005-01-17 08:31:49 51°15.238 2°54.076 326.6 4.7 331 10.3
2005-01-17 08:31:56 51°15.246 2°54.068 327.2 4.6 328 10.3
2005-01-17 08:32:00 51°15.25 2°54.063 327.3 4.7 329 10.4
2005-01-17 08:32:05 51°15.255 2°54.058 327 4.6 326 10.4
2005-01-17 08:32:10 51°15.261 2°54.053 326.5 4.6 327 10.5
2005-01-17 08:32:16 51°15.267 2°54.045 325.7 4.5 326 10.5
2005-01-17 08:32:20 51°15.271 2°54.041 325 4.6 326 10.5
2005-01-17 08:32:24 51°15.275 2°54.036 324.5 4.5 325 10.5
2005-01-17 08:32:32 51°15.284 2°54.027 324 4.6 324 10.4
2005-01-17 08:32:36 51°15.288 2°54.023 323.7 4.6 325 10.4
2005-01-17 08:32:40 51°15.292 2°54.018 323.6 4.7 324 10.5
2005-01-17 08:32:44 51°15.297 2°54.012 323.8 5.3 324 10.5
2005-01-17 08:32:50 51°15.305 2°54.003 324.4 5.3 324 10.5
2005-01-17 08:32:56 51°15.314 2°53.993 325.5 6.7 326 10.5
2005-01-17 08:33:01 51°15.324 2°53.983 327.8 7.7 326 10.6
2005-01-17 08:33:05 51°15.332 2°53.975 329.9 8.3 329 10.6
2005-01-17 08:33:11 51°15.345 2°53.962 331.2 8.9 329 10.6
2005-01-17 08:33:16 51°15.357 2°53.951 331.2 9.7 328 10.8
2005-01-17 08:33:21 51°15.369 2°53.938 330.9 10.4 327 10.8
2005-01-17 08:33:26 51°15.382 2°53.925 330.1 10.7 327 10.6
2005-01-17 08:33:31 51°15.396 2°53.91 329.4 11.2 326 10.8
2005-01-17 08:33:36 51°15.41 2°53.895 329.2 11.7 326 10.8
2005-01-17 08:33:40 51°15.421 2°53.882 328.7 12.4 325 10.8
2005-01-17 08:33:46 51°15.439 2°53.862 328.7 12.7 325 10.8
2005-01-17 08:33:50 51°15.45 2°53.849 328.5 13 325 10.8
2005-01-17 08:33:56 51°15.468 2°53.828 328.6 13.2 325 11.1
2005-01-17 08:34:00 51°15.48 2°53.815 328.7 13.4 325 11
2005-01-17 08:34:04 51°15.493 2°53.801 329 13.5 325 11.2
2005-01-17 08:34:12 51°15.518 2°53.774 329.4 13.5 325 11.2
2005-01-17 08:34:16 51°15.531 2°53.76 329.4 13.7 325 11.2
2005-01-17 08:34:21 51°15.547 2°53.743 329.5 13.8 326 11.3
2005-01-17 08:34:26 51°15.562 2°53.726 329.6 13.9 326 11.4
2005-01-17 08:34:31 51°15.579 2°53.708 329.4 13.9 326 11.5
2005-01-17 08:34:36 51°15.596 2°53.691 329.5 14 326 11.6
2005-01-17 08:34:41 51°15.612 2°53.675 331.4 14.1 329 11.6
2005-01-17 08:34:46 51°15.629 2°53.661 332.9 14 329 11.7
2005-01-17 08:34:51 51°15.646 2°53.646 334.5 14 332 11.8
2005-01-17 08:34:56 51°15.663 2°53.631 335.2 14 331 11.8
2005-01-17 08:35:01 51°15.681 2°53.616 335.5 14.1 332 12
2005-01-17 08:35:05 51°15.694 2°53.606 336 14 332 11.9
2005-01-17 08:35:09 51°15.708 2°53.594 336.3 14 332 12
2005-01-17 08:35:16 51°15.733 2°53.574 336.4 14.1 332 12
2005-01-17 08:35:20 51°15.746 2°53.562 336.1 14.1 332 12
2005-01-17 08:35:25 51°15.763 2°53.547 335.8 14.1 331 12.1
2005-01-17 08:35:29 51°15.777 2°53.536 336 14.1 332 12.2
2005-01-17 08:35:36 51°15.801 2°53.516 336 14 332 12.1
2005-01-17 08:35:41 51°15.819 2°53.501 336.3 14 332 12.2
2005-01-17 08:35:46 51°15.836 2°53.487 336.7 14.1 333 12.3
2005-01-17 08:35:51 51°15.853 2°53.473 336.8 14.1 333 12.2
2005-01-17 08:35:56 51°15.871 2°53.458 337.4 14.1 334 12.3
2005-01-17 08:36:00 51°15.885 2°53.447 337.1 14.1 333 12.3
2005-01-17 08:36:06 51°15.906 2°53.429 336.5 14.1 332 12.4
2005-01-17 08:36:11 51°15.924 2°53.415 336.3 14.2 333 12.4
2005-01-17 08:36:16 51°15.941 2°53.4 336.5 14.2 333 12.4
2005-01-17 08:36:21 51°15.958 2°53.387 336.7 14.2 333 12.4
2005-01-17 08:36:26 51°15.976 2°53.372 336.7 14.2 332 12.5
2005-01-17 08:36:30 51°15.99 2°53.361 336.8 14.2 332 12.6
2005-01-17 08:36:36 51°16.011 2°53.344 336.9 14.2 333 12.6
2005-01-17 08:36:41 51°16.029 2°53.33 337.1 14.2 333 12.7
2005-01-17 08:36:46 51°16.046 2°53.316 337.3 14.2 334 12.7
2005-01-17 08:36:49 51°16.057 2°53.307 337.4 14.2 333 12.7
2005-01-17 08:36:56 51°16.082 2°53.288 337.2 14.1 333 12.8
2005-01-17 08:37:00 51°16.096 2°53.277 336.7 14.2 333 12.9
2005-01-17 08:37:06 51°16.117 2°53.26 336.4 14.1 333 12.8
2005-01-17 08:37:10 51°16.131 2°53.248 336.5 14.2 333 13
2005-01-17 08:37:16 51°16.152 2°53.231 336.6 14.1 334 12.9
2005-01-17 08:37:21 51°16.169 2°53.217 336.6 14.1 333 12.9
2005-01-17 08:37:26 51°16.187 2°53.203 336.4 14.1 333 13
2005-01-17 08:37:30 51°16.2 2°53.191 336.4 14.1 333 13
2005-01-17 08:37:36 51°16.222 2°53.175 336.8 14.2 333 13
2005-01-17 08:37:41 51°16.239 2°53.161 336.6 14.1 333 13.1
2005-01-17 08:37:46 51°16.257 2°53.147 336.7 14.1 334 13.1
2005-01-17 08:37:48 51°16.264 2°53.14 336.8 14.1 333 13.1
2005-01-17 08:37:56 51°16.292 2°53.118 336.9 14.2 334 13.1
2005-01-17 08:38:00 51°16.306 2°53.108 336.8 14.2 333 13.3
2005-01-17 08:38:06 51°16.327 2°53.092 336.8 14.2 334 12.9
2005-01-17 08:38:10 51°16.341 2°53.081 337.6 14.2 334 13.2
2005-01-17 08:38:16 51°16.362 2°53.065 337.4 14.2 334 13
2005-01-17 08:38:20 51°16.376 2°53.054 337.4 14 334 13.1
2005-01-17 08:38:26 51°16.398 2°53.037 336.9 14 333 13.2
2005-01-17 08:38:31 51°16.415 2°53.023 337 14 335 13.1
2005-01-17 08:38:36 51°16.432 2°53.01 337.1 14.1 334 13.1
2005-01-17 08:38:41 51°16.45 2°52.996 337.2 14 335 13.1
2005-01-17 08:38:46 51°16.467 2°52.983 337.5 14.1 334 13.1
2005-01-17 08:38:49 51°16.479 2°52.974 337.3 14 334 12.9
2005-01-17 08:38:56 51°16.503 2°52.956 337.3 14.1 334 12.8
2005-01-17 08:39:00 51°16.517 2°52.944 337.1 14.1 333 12.8
2005-01-17 08:39:06 51°16.538 2°52.928 337.2 14.1 334 12.6
2005-01-17 08:39:10 51°16.552 2°52.917 337 14.1 333 12.6
2005-01-17 08:39:16 51°16.573 2°52.901 336.8 14 334 12.4
2005-01-17 08:39:21 51°16.591 2°52.887 337 14.1 334 12.4
2005-01-17 08:39:26 51°16.608 2°52.873 337.3 14.1 334 12.4
2005-01-17 08:39:30 51°16.623 2°52.862 336.7 14.1 334 12.2
2005-01-17 08:39:36 51°16.643 2°52.845 336.7 14.1 334 12.2
2005-01-17 08:39:40 51°16.658 2°52.835 337.5 14.1 334 12
2005-01-17 08:39:46 51°16.679 2°52.82 338.9 14.1 336 11.7
2005-01-17 08:39:50 51°16.693 2°52.811 339.3 14.1 336 11.7
2005-01-17 08:39:56 51°16.715 2°52.796 339.7 14.1 336 11.3
2005-01-17 08:40:01 51°16.732 2°52.784 340 14 337 11.2
2005-01-17 08:40:06 51°16.751 2°52.771 340 14 337 10.9
2005-01-17 08:40:10 51°16.766 2°52.761 339.9 14.1 337 10.4
2005-01-17 08:40:16 51°16.787 2°52.746 339.6 14 337 10.3
2005-01-17 08:40:21 51°16.804 2°52.734 339.7 13.9 337 10.3
2005-01-17 08:40:26 51°16.823 2°52.722 340 13.8 337 10.4
2005-01-17 08:40:31 51°16.84 2°52.71 340.3 14 337 10.2
2005-01-17 08:40:36 51°16.858 2°52.698 340.2 14 336 10
2005-01-17 08:40:40 51°16.872 2°52.688 340.3 13.9 337 10
2005-01-17 08:40:46 51°16.893 2°52.674 340.5 13.9 337 10.1
2005-01-17 08:40:51 51°16.911 2°52.662 340.5 13.9 337 10.1
2005-01-17 08:40:56 51°16.93 2°52.649 340.5 14.1 337 10.4
2005-01-17 08:41:00 51°16.944 2°52.64 340.3 14.1 337 10.5
2005-01-17 08:41:06 51°16.966 2°52.624 340 14.1 336 10.7
2005-01-17 08:41:08 51°16.973 2°52.62 339.6 14.2 336 10.7
2005-01-17 08:41:16 51°17.002 2°52.599 340 14.3 336 10.8
2005-01-17 08:41:20 51°17.017 2°52.589 340 14.3 336 10.5
2005-01-17 08:41:25 51°17.035 2°52.576 339.8 14.3 336 10.4
2005-01-17 08:41:29 51°17.05 2°52.566 340.4 14.3 336 10.3
2005-01-17 08:41:36 51°17.075 2°52.55 340.7 14.1 337 10.1
2005-01-17 08:41:41 51°17.093 2°52.537 340.5 14.1 337 10.3
2005-01-17 08:41:46 51°17.111 2°52.524 339.9 14.1 336 10.3
2005-01-17 08:41:50 51°17.125 2°52.514 339.8 14.1 336 10.4
2005-01-17 08:41:56 51°17.147 2°52.5 340 14.2 336 10.3
2005-01-17 08:42:01 51°17.165 2°52.487 339.6 14.2 335 10.5
2005-01-17 08:42:06 51°17.183 2°52.473 339.3 14.2 336 10.4
2005-01-17 08:42:10 51°17.198 2°52.463 339.5 14.2 336 10.4
2005-01-17 08:42:16 51°17.219 2°52.449 340.4 14.2 337 10.5
2005-01-17 08:42:21 51°17.238 2°52.437 341 14.3 338 10.5
2005-01-17 08:42:26 51°17.256 2°52.424 341.1 14.3 337 10.8
2005-01-17 08:42:31 51°17.274 2°52.412 340.7 14.3 337 10.8
2005-01-17 08:42:36 51°17.293 2°52.399 340.1 14.3 337 10.8
2005-01-17 08:42:40 51°17.307 2°52.389 339.5 14.3 336 11
2005-01-17 08:42:46 51°17.329 2°52.373 339.6 14.3 336 11
2005-01-17 08:42:51 51°17.347 2°52.362 339.7 14.3 336 10.8
2005-01-17 08:42:56 51°17.366 2°52.35 339.9 14.3 337 10.9
2005-01-17 08:43:01 51°17.384 2°52.337 341.1 14.3 337 10.9
2005-01-17 08:43:06 51°17.402 2°52.325 341.1 14.3 338 11.1
2005-01-17 08:43:10 51°17.416 2°52.316 341.1 14.3 338 11.1
2005-01-17 08:43:16 51°17.438 2°52.302 341.1 14.2 338 11
2005-01-17 08:43:21 51°17.457 2°52.289 340.4 14.3 337 11.3
2005-01-17 08:43:26 51°17.475 2°52.276 339.2 14.2 336 11.1
2005-01-17 08:43:29 51°17.486 2°52.269 340 14.1 337 11.2
2005-01-17 08:43:36 51°17.511 2°52.249 339.3 14.1 336 11
2005-01-17 08:43:41 51°17.528 2°52.232 335.2 14.2 330 11.2
2005-01-17 08:43:46 51°17.544 2°52.215 331.8 14.1 326 11.1
2005-01-17 08:43:50 51°17.556 2°52.2 328.7 14 326 11.1
2005-01-17 08:43:56 51°17.575 2°52.177 326.5 14.1 323 11
2005-01-17 08:44:00 51°17.587 2°52.161 324.9 14.1 321 11.2
2005-01-17 08:44:06 51°17.605 2°52.137 324.1 14.1 321 11.1
2005-01-17 08:44:11 51°17.62 2°52.117 322.9 14 319 11
2005-01-17 08:44:16 51°17.633 2°52.095 321.2 14.1 316 11.1
2005-01-17 08:44:21 51°17.648 2°52.073 318.5 14.1 316 11
2005-01-17 08:44:26 51°17.661 2°52.051 316.4 14.1 313 11.1
2005-01-17 08:44:29 51°17.668 2°52.037 315.3 14.1 313 11
2005-01-17 08:44:36 51°17.687 2°52.005 314.1 14 312 11
2005-01-17 08:44:40 51°17.697 2°51.985 313.7 14 311 10.9
2005-01-17 08:44:45 51°17.71 2°51.962 313 14 310 11
2005-01-17 08:44:50 51°17.723 2°51.938 312.9 14.1 311 10.9
2005-01-17 08:44:56 51°17.738 2°51.91 312.9 14.1 310 11
2005-01-17 08:45:01 51°17.751 2°51.886 313 14.1 311 10.8
2005-01-17 08:45:05 51°17.761 2°51.867 312.8 14 311 10.8
2005-01-17 08:45:09 51°17.771 2°51.848 313.1 14.1 311 10.8
2005-01-17 08:45:16 51°17.789 2°51.815 313.3 14.1 311 10.9
2005-01-17 08:45:21 51°17.802 2°51.792 313.5 14.1 311 10.7
2005-01-17 08:45:26 51°17.815 2°51.769 313.5 14.1 311 10.8
2005-01-17 08:45:31 51°17.828 2°51.745 313.6 14.1 311 10.8
2005-01-17 08:45:36 51°17.841 2°51.722 313.9 14.2 312 10.9
2005-01-17 08:45:40 51°17.852 2°51.703 313.8 14.1 312 10.9
2005-01-17 08:45:46 51°17.867 2°51.675 313.8 14.1 311 10.9
2005-01-17 08:45:52 51°17.883 2°51.647 314.1 14.1 311 10.9
2005-01-17 08:45:56 51°17.894 2°51.628 314 14.2 311 10.9
2005-01-17 08:46:00 51°17.904 2°51.609 314 14.2 312 11
2005-01-17 08:46:06 51°17.92 2°51.581 314.2 14.2 312 11
2005-01-17 08:46:11 51°17.933 2°51.557 314.2 14.2 311 11.1
2005-01-17 08:46:16 51°17.946 2°51.533 314 14.2 312 11.1
2005-01-17 08:46:21 51°17.958 2°51.509 311.6 14.2 308 11.2
2005-01-17 08:46:26 51°17.969 2°51.483 310.2 14.1 308 11.1
2005-01-17 08:46:32 51°17.983 2°51.452 308.4 14.1 304 11.4
2005-01-17 08:46:36 51°17.991 2°51.431 306.7 14.2 305 11.6
2005-01-17 08:46:41 51°18.002 2°51.405 305.7 14.1 303 11.7
2005-01-17 08:46:46 51°18.012 2°51.378 304.7 14.1 303 11.8
2005-01-17 08:46:52 51°18.024 2°51.345 303.7 14.1 300 11.7
2005-01-17 08:46:56 51°18.032 2°51.324 302.6 14.2 300 12.1
2005-01-17 08:47:01 51°18.041 2°51.297 301.2 14.1 299 12.1
2005-01-17 08:47:05 51°18.049 2°51.274 301 14.1 299 12.3
2005-01-17 08:47:09 51°18.056 2°51.252 300.4 14.1 299 12.2
2005-01-17 08:47:16 51°18.069 2°51.214 300.4 14.1 298 12.3
2005-01-17 08:47:20 51°18.077 2°51.192 300.5 14.1 299 12.6
2005-01-17 08:47:26 51°18.089 2°51.159 300.7 14.1 299 12.9
2005-01-17 08:47:31 51°18.098 2°51.132 300.7 14.1 299 12.8
2005-01-17 08:47:36 51°18.108 2°51.105 300.5 14.1 298 12.8
2005-01-17 08:47:40 51°18.115 2°51.082 300.5 14.1 299 13
2005-01-17 08:47:46 51°18.127 2°51.05 300.6 14.1 299 13.2
2005-01-17 08:47:51 51°18.136 2°51.022 300.9 14.1 299 13.1
2005-01-17 08:47:56 51°18.146 2°50.995 300.9 14.1 299 13.2
2005-01-17 08:48:00 51°18.154 2°50.973 301 14.1 299 13.4
2005-01-17 08:48:06 51°18.165 2°50.94 300.6 14.1 299 13.5
2005-01-17 08:48:09 51°18.171 2°50.924 300.9 14.1 300 13.5
2005-01-17 08:48:16 51°18.185 2°50.887 301.6 14.1 300 13.4
2005-01-17 08:48:21 51°18.195 2°50.858 301.4 14.1 299 13.8
2005-01-17 08:48:24 51°18.201 2°50.842 301 14.1 299 13.6
2005-01-17 08:48:28 51°18.208 2°50.82 301.2 14.1 299 13.7
2005-01-17 08:48:36 51°18.224 2°50.777 301.6 14 300 13.8
2005-01-17 08:48:41 51°18.233 2°50.751 301.6 14 299 13.9
2005-01-17 08:48:46 51°18.243 2°50.724 301.7 14 300 14
2005-01-17 08:48:51 51°18.253 2°50.697 301.8 14 300 14.1
2005-01-17 08:48:56 51°18.262 2°50.67 301.7 14 300 14.1
2005-01-17 08:49:01 51°18.272 2°50.643 301.4 14 300 14.2
2005-01-17 08:49:06 51°18.281 2°50.616 301.6 14 300 14.2
2005-01-17 08:49:12 51°18.293 2°50.583 301.2 14.1 299 14.4
2005-01-17 08:49:16 51°18.301 2°50.562 301.2 13.9 300 14.6
2005-01-17 08:49:21 51°18.31 2°50.536 301.4 14 300 14.5
2005-01-17 08:49:26 51°18.32 2°50.509 301.5 14 300 14.6
2005-01-17 08:49:31 51°18.33 2°50.482 301.3 14 300 14.7
2005-01-17 08:49:36 51°18.339 2°50.455 301.3 14 299 14.6
2005-01-17 08:49:41 51°18.349 2°50.427 301.1 14 299 14.9
2005-01-17 08:49:46 51°18.359 2°50.401 301.2 14.1 300 14.7
2005-01-17 08:49:52 51°18.37 2°50.369 301.2 14 299 14.9
2005-01-17 08:49:56 51°18.378 2°50.347 301.5 14 300 14.8
2005-01-17 08:50:01 51°18.388 2°50.32 301.9 14 300 14.9
2005-01-17 08:50:06 51°18.398 2°50.293 301.6 14 300 15
2005-01-17 08:50:11 51°18.408 2°50.266 301.2 14 299 14.9
2005-01-17 08:50:16 51°18.417 2°50.239 301.2 14 300 14.9
2005-01-17 08:50:21 51°18.427 2°50.213 301.5 14 300 14.9
2005-01-17 08:50:26 51°18.437 2°50.186 301.8 14 301 14.9
2005-01-17 08:50:31 51°18.447 2°50.159 302.1 14 300 14.9
2005-01-17 08:50:36 51°18.456 2°50.133 301.9 14 300 14.9
2005-01-17 08:50:41 51°18.466 2°50.106 301.8 14 300 14.8
2005-01-17 08:50:46 51°18.476 2°50.078 301.7 14 300 15
2005-01-17 08:50:50 51°18.484 2°50.057 301.5 13.9 300 14.6
2005-01-17 08:50:56 51°18.495 2°50.025 301.5 14 300 14.7
2005-01-17 08:51:00 51°18.503 2°50.003 301.3 14 299 14.6
2005-01-17 08:51:06 51°18.513 2°49.97 300.9 14 298 14.4
2005-01-17 08:51:12 51°18.525 2°49.938 300.5 14 298 14.2
2005-01-17 08:51:16 51°18.532 2°49.916 300.2 14 299 14.1
2005-01-17 08:51:21 51°18.542 2°49.889 300.6 14 299 14
2005-01-17 08:51:26 51°18.551 2°49.862 300.4 14 299 13.9
2005-01-17 08:51:28 51°18.555 2°49.85 300.8 14 299 13.7
2005-01-17 08:51:36 51°18.57 2°49.808 301 13.9 299 13.6
2005-01-17 08:51:41 51°18.579 2°49.78 300.7 14 298 13.7
2005-01-17 08:51:46 51°18.588 2°49.753 300.6 14 299 13.2
2005-01-17 08:51:51 51°18.598 2°49.726 300.9 14 299 13
2005-01-17 08:51:56 51°18.607 2°49.699 301 14 299 12.8
2005-01-17 08:52:01 51°18.616 2°49.672 300.6 14 298 12.7
2005-01-17 08:52:06 51°18.626 2°49.645 300.4 14 299 12.5
2005-01-17 08:52:12 51°18.637 2°49.612 300.6 14 299 12
2005-01-17 08:52:16 51°18.644 2°49.591 300.8 14 298 11.7
2005-01-17 08:52:20 51°18.652 2°49.569 301.2 13.9 300 11.2
2005-01-17 08:52:26 51°18.663 2°49.537 301.4 13.9 299 11.6
2005-01-17 08:52:31 51°18.673 2°49.51 301.4 13.9 299 11.2
2005-01-17 08:52:36 51°18.682 2°49.483 301.2 13.9 299 11.2
2005-01-17 08:52:41 51°18.691 2°49.456 300.8 14 298 11
2005-01-17 08:52:46 51°18.701 2°49.429 300.4 14 299 10.9
2005-01-17 08:52:51 51°18.71 2°49.402 300.6 14 299 10.9
2005-01-17 08:52:56 51°18.719 2°49.374 300.6 14 299 10.9
2005-01-17 08:53:01 51°18.729 2°49.347 300.7 14 299 10.9
2005-01-17 08:53:06 51°18.738 2°49.32 301 14 299 10.9
2005-01-17 08:53:11 51°18.747 2°49.293 301.2 14.1 299 11.2
2005-01-17 08:53:16 51°18.757 2°49.266 301 14.1 299 11.5
2005-01-17 08:53:21 51°18.766 2°49.238 301 14.1 299 11.8
2005-01-17 08:53:26 51°18.776 2°49.211 301.3 14.2 300 11.7
2005-01-17 08:53:31 51°18.786 2°49.183 301.4 14.2 299 12.2
2005-01-17 08:53:36 51°18.795 2°49.156 301.4 14.2 300 11.6
2005-01-17 08:53:40 51°18.803 2°49.134 301.2 14.2 299 11.7
2005-01-17 08:53:46 51°18.815 2°49.101 301.3 14.1 299 11.6
2005-01-17 08:53:50 51°18.822 2°49.079 301.2 14.1 299 11.2
2005-01-17 08:53:56 51°18.833 2°49.046 301.1 14.1 299 11.7
2005-01-17 08:54:01 51°18.843 2°49.019 301.2 14.1 300 12.1
2005-01-17 08:54:06 51°18.853 2°48.992 301.5 14.1 299 12
2005-01-17 08:54:11 51°18.862 2°48.964 301.1 14.2 299 12
2005-01-17 08:54:16 51°18.872 2°48.937 301.1 14.2 299 12.4
2005-01-17 08:54:21 51°18.881 2°48.909 301.1 14.2 299 12.6
2005-01-17 08:54:25 51°18.889 2°48.887 300.9 14.2 298 12.7
2005-01-17 08:54:29 51°18.896 2°48.865 300.6 14.2 298 13.1
2005-01-17 08:54:36 51°18.909 2°48.828 300.8 14.2 299 13.1
2005-01-17 08:54:41 51°18.919 2°48.799 301.1 14.2 299 13.6
2005-01-17 08:54:46 51°18.929 2°48.771 300.9 14.1 299 13.9
2005-01-17 08:54:51 51°18.938 2°48.744 301.3 14.2 299 14.2
2005-01-17 08:54:56 51°18.948 2°48.717 301.2 14.2 299 14.5
2005-01-17 08:55:01 51°18.958 2°48.689 301.8 14.1 299 14.6
2005-01-17 08:55:06 51°18.967 2°48.663 301.4 14.2 299 14.6
2005-01-17 08:55:11 51°18.977 2°48.635 301.2 14.1 300 14.7
2005-01-17 08:55:16 51°18.986 2°48.608 301.2 14.1 299 14.8
2005-01-17 08:55:20 51°18.994 2°48.586 301 14 299 14.9
2005-01-17 08:55:26 51°19.005 2°48.552 300.3 14.1 298 15
2005-01-17 08:55:31 51°19.014 2°48.526 300.9 14.1 298 15.2
2005-01-17 08:55:36 51°19.023 2°48.498 300.9 14.1 298 15.6
2005-01-17 08:55:41 51°19.033 2°48.47 301.1 14.1 299 16
2005-01-17 08:55:45 51°19.041 2°48.449 301.2 14.1 298 16.2
2005-01-17 08:55:49 51°19.048 2°48.426 301.5 14.1 299 16.4
2005-01-17 08:55:56 51°19.062 2°48.389 301.2 14.1 299 16.7
2005-01-17 08:56:01 51°19.071 2°48.361 301.4 14.1 299 17
2005-01-17 08:56:06 51°19.081 2°48.334 301.9 14.1 299 17.2
2005-01-17 08:56:09 51°19.087 2°48.318 301.5 14.1 299 17.4
2005-01-17 08:56:16 51°19.1 2°48.279 301.2 14.2 299 17.7
2005-01-17 08:56:21 51°19.11 2°48.252 300.7 14.1 298 17.6
2005-01-17 08:56:26 51°19.119 2°48.225 301.2 14.1 300 17.8
2005-01-17 08:56:30 51°19.127 2°48.203 301.3 14.1 299 17.9
2005-01-17 08:56:36 51°19.138 2°48.17 301.2 14.1 299 18.2
2005-01-17 08:56:41 51°19.148 2°48.143 301.3 14.1 299 18.3
2005-01-17 08:56:46 51°19.157 2°48.115 301.1 14 298 18.6
2005-01-17 08:56:50 51°19.165 2°48.094 300.9 14 299 18.7
2005-01-17 08:56:56 51°19.176 2°48.061 301 14 299 19
2005-01-17 08:57:00 51°19.184 2°48.04 301 14 299 19.1
2005-01-17 08:57:06 51°19.195 2°48.007 301 14 300 19.4
2005-01-17 08:57:11 51°19.205 2°47.98 301.3 14 299 19.5
2005-01-17 08:57:16 51°19.215 2°47.955 301.3 14 299 19.6
2005-01-17 08:57:21 51°19.225 2°47.927 301.9 13.9 300 19.8
2005-01-17 08:57:26 51°19.234 2°47.9 302.3 13.9 301 20.2
2005-01-17 08:57:31 51°19.244 2°47.873 301.8 14 300 20.3
2005-01-17 08:57:36 51°19.253 2°47.847 301.9 13.9 300 20.5
2005-01-17 08:57:41 51°19.263 2°47.82 301.7 13.9 300 20.6
2005-01-17 08:57:46 51°19.272 2°47.793 301.3 13.9 299 20.9
2005-01-17 08:57:50 51°19.279 2°47.772 301.2 14 299 20.8
2005-01-17 08:57:56 51°19.29 2°47.739 301.2 14 299 21.2
2005-01-17 08:58:00 51°19.298 2°47.718 301.2 13.9 300 21.2
2005-01-17 08:58:06 51°19.31 2°47.685 301.4 13.9 299 21.4
2005-01-17 08:58:08 51°19.314 2°47.675 301.1 13.9 300 21.5
2005-01-17 08:58:16 51°19.329 2°47.632 300.9 13.9 298 21.7
2005-01-17 08:58:20 51°19.336 2°47.611 301.2 13.9 300 22
2005-01-17 08:58:26 51°19.348 2°47.579 301.2 13.9 299 22.1
2005-01-17 08:58:31 51°19.357 2°47.552 300.6 13.9 299 22.1
2005-01-17 08:58:36 51°19.367 2°47.525 301 13.9 299 22.2
2005-01-17 08:58:41 51°19.376 2°47.498 301.2 13.9 299 22.2
2005-01-17 08:58:46 51°19.386 2°47.472 301.2 14 300 22.1
2005-01-17 08:58:51 51°19.396 2°47.444 301.3 14 300 22.2
2005-01-17 08:58:56 51°19.405 2°47.418 301.5 14 299 22.2
2005-01-17 08:59:01 51°19.414 2°47.391 301.2 14 299 22.2
2005-01-17 08:59:06 51°19.424 2°47.364 300.8 14 298 22.2
2005-01-17 08:59:10 51°19.431 2°47.342 300.9 13.9 299 22.2
2005-01-17 08:59:16 51°19.443 2°47.308 300.5 13.9 299 22.5
2005-01-17 08:59:21 51°19.452 2°47.283 300.8 14 299 22.1
2005-01-17 08:59:25 51°19.46 2°47.261 301.5 14 300 22.2
2005-01-17 08:59:28 51°19.465 2°47.245 301.6 13.9 299 22.1
2005-01-17 08:59:36 51°19.481 2°47.201 301.2 13.9 299 22.3
2005-01-17 08:59:41 51°19.49 2°47.175 301.2 13.8 300 22.3
2005-01-17 08:59:46 51°19.5 2°47.148 301.2 13.8 300 22.4
2005-01-17 08:59:48 51°19.504 2°47.137 301.4 13.8 300 22.4
2005-01-17 08:59:56 51°19.519 2°47.095 301.4 13.8 300 22.4
2005-01-17 09:00:01 51°19.528 2°47.069 301.3 13.9 299 22.2
2005-01-17 09:00:06 51°19.538 2°47.041 301.2 13.9 299 22.3
2005-01-17 09:00:09 51°19.543 2°47.026 301.2 13.9 299 22.3
2005-01-17 09:00:16 51°19.557 2°46.988 301 14 299 22.1
2005-01-17 09:00:21 51°19.566 2°46.96 301 13.9 299 22.1
2005-01-17 09:00:24 51°19.572 2°46.944 300.3 13.8 298 22.1
2005-01-17 09:00:29 51°19.581 2°46.917 300.6 14 299 21.9
2005-01-17 09:00:36 51°19.594 2°46.88 300.7 14 298 21.7
2005-01-17 09:00:40 51°19.602 2°46.858 301 13.9 299 21.8
2005-01-17 09:00:46 51°19.613 2°46.826 300.9 13.9 299 21
2005-01-17 09:00:50 51°19.621 2°46.804 300.8 14 299 21.4
2005-01-17 09:00:56 51°19.632 2°46.771 300.6 14 298 21.6
2005-01-17 09:01:01 51°19.641 2°46.744 300.7 13.9 299 20.5
2005-01-17 09:01:06 51°19.65 2°46.717 301 13.9 299 21
2005-01-17 09:01:10 51°19.657 2°46.695 300.1 13.9 298 21
2005-01-17 09:01:16 51°19.668 2°46.663 299.7 13.9 297 20.6
2005-01-17 09:01:21 51°19.677 2°46.635 299.3 13.9 297 20.7
2005-01-17 09:01:26 51°19.685 2°46.608 298.7 13.9 297 20.3
2005-01-17 09:01:32 51°19.696 2°46.574 298.6 13.9 297 19.3
2005-01-17 09:01:36 51°19.703 2°46.552 298.6 13.9 297 19.9
2005-01-17 09:01:41 51°19.711 2°46.525 298.3 13.9 296 19.7
2005-01-17 09:01:46 51°19.72 2°46.497 298.2 13.9 296 19.6
2005-01-17 09:01:48 51°19.723 2°46.485 297.6 14 296 18.1
2005-01-17 09:01:56 51°19.736 2°46.441 297.5 14 296 18.9
2005-01-17 09:02:00 51°19.743 2°46.419 297.7 13.8 296 18.6
2005-01-17 09:02:06 51°19.753 2°46.385 297.3 13.8 296 17.8
2005-01-17 09:02:10 51°19.76 2°46.364 297.5 13.9 296 16.9
2005-01-17 09:02:16 51°19.77 2°46.331 298.3 13.9 296 17.7
2005-01-17 09:02:21 51°19.778 2°46.303 298.2 13.8 296 17.5
2005-01-17 09:02:26 51°19.787 2°46.275 298.1 13.9 296 17.2
2005-01-17 09:02:28 51°19.791 2°46.265 298.8 13.9 298 14.5
2005-01-17 09:02:36 51°19.805 2°46.221 299.7 13.9 298 15.9
2005-01-17 09:02:41 51°19.815 2°46.194 301.3 13.9 301 15.8
2005-01-17 09:02:45 51°19.823 2°46.174 302.1 13.9 301 13.8
2005-01-17 09:02:50 51°19.835 2°46.149 305 13.9 305 14.7
2005-01-17 09:02:56 51°19.847 2°46.121 307.1 13.3 305 13.3
2005-01-17 09:03:01 51°19.857 2°46.1 308.4 12.5 307 12.8
2005-01-17 09:03:06 51°19.868 2°46.08 309.1 11.7 307 12.6
2005-01-17 09:03:08 51°19.871 2°46.072 309.6 10.9 308 13.7
2005-01-17 09:03:16 51°19.885 2°46.042 309.3 10.9 308 14
2005-01-17 09:03:20 51°19.891 2°46.028 308.3 9.9 305 14.5
2005-01-17 09:03:26 51°19.9 2°46.008 305.2 9.9 305 14.9
2005-01-17 09:03:30 51°19.904 2°45.995 300.7 8.7 298 15.1
2005-01-17 09:03:36 51°19.909 2°45.975 295.8 8.5 296 14.7
2005-01-17 09:03:41 51°19.913 2°45.959 291.7 7.6 291 13.4
2005-01-17 09:03:46 51°19.916 2°45.944 288.1 7.3 289 12.1
2005-01-17 09:03:48 51°19.917 2°45.938 282.6 6.6 281 13.4
2005-01-17 09:03:56 51°19.918 2°45.916 276 6.5 279 14.2
2005-01-17 09:04:01 51°19.918 2°45.904 269.9 5.7 270 13.7
2005-01-17 09:04:05 51°19.917 2°45.895 263.3 5.4 266 12.6
2005-01-17 09:04:10 51°19.916 2°45.884 257.3 5 259 13.6
2005-01-17 09:04:16 51°19.914 2°45.871 252.7 4.8 255 16.2
2005-01-17 09:04:21 51°19.912 2°45.862 246.8 4.8 253 15
2005-01-17 09:04:26 51°19.909 2°45.852 243 4.5 247 15.3
2005-01-17 09:04:30 51°19.907 2°45.846 239.1 4.6 246 15.1
2005-01-17 09:04:36 51°19.903 2°45.836 236 4.3 240 13.9
2005-01-17 09:04:41 51°19.9 2°45.828 233.6 4.2 240 13.5
2005-01-17 09:04:46 51°19.898 2°45.821 232.2 3.9 238 13.9
2005-01-17 09:04:51 51°19.895 2°45.814 231.4 3.6 238 14.2
2005-01-17 09:04:56 51°19.893 2°45.808 230.8 3.3 238 14.4
2005-01-17 09:05:01 51°19.891 2°45.803 230.1 3.3 238 14.8
2005-01-17 09:05:06 51°19.89 2°45.8 229.6 2.4 241 14.8
2005-01-17 09:05:10 51°19.889 2°45.797 228.6 1.8 244 14.8
2005-01-17 09:05:16 51°19.888 2°45.794 227.4 1.4 249 15
2005-01-17 09:05:20 51°19.888 2°45.792 225.7 1 262 15.2
2005-01-17 09:05:24 51°19.889 2°45.791 223.7 0.8 276 15.3
2005-01-17 09:05:32 51°19.889 2°45.788 222.3 0.7 276 15.4
2005-01-17 09:05:36 51°19.889 2°45.787 221.3 0.7 289 15.3
2005-01-17 09:05:41 51°19.89 2°45.786 221.3 0.6 287 15.4
2005-01-17 09:05:46 51°19.89 2°45.785 221.3 0.7 304 15.4
2005-01-17 09:05:51 51°19.892 2°45.784 221.8 0.6 316 15.3
2005-01-17 09:05:56 51°19.892 2°45.784 222.6 0.7 333 15.3
2005-01-17 09:06:00 51°19.893 2°45.783 223 0.7 336 15.3
2005-01-17 09:06:06 51°19.894 2°45.783 222.7 0.7 339 15.4
2005-01-17 09:06:11 51°19.895 2°45.782 223 0.6 347 15.4
2005-01-17 09:06:16 51°19.896 2°45.782 223.3 0.9 345 15.5
2005-01-17 09:06:21 51°19.897 2°45.782 223.6 0.8 349 15.5
2005-01-17 09:06:26 51°19.899 2°45.782 224.2 0.8 348 15.5
2005-01-17 09:06:32 51°19.9 2°45.781 224.6 0.9 357 15.5
2005-01-17 09:06:36 51°19.901 2°45.781 225.7 1 358 15.5
2005-01-17 09:06:40 51°19.902 2°45.781 227.8 1 1 15.6
2005-01-17 09:06:46 51°19.903 2°45.782 228.2 1   15.6
2005-01-17 09:06:51 51°19.905 2°45.781 230 1.1   15.7
2005-01-17 09:06:56 51°19.906 2°45.781 231.8 1.1 1 15.8
2005-01-17 09:07:01 51°19.908 2°45.782 233.8 1 1 15.9
2005-01-17 09:07:06 51°19.91 2°45.781 235.2 1.1 358 15.9
2005-01-17 09:07:08 51°19.911 2°45.781 236.6 1.1 353 15.8
2005-01-17 09:07:16 51°19.913 2°45.781 237.9 1.1 348 15.7
2005-01-17 09:07:21 51°19.914 2°45.78 239.1 1 342 15.8
2005-01-17 09:07:25 51°19.915 2°45.779 240.2 1.1 342 15.8
2005-01-17 09:07:31 51°19.917 2°45.778 241.6 0.9 331 15.8
2005-01-17 09:07:36 51°19.918 2°45.777 242 1 327 15.7
2005-01-17 09:07:41 51°19.919 2°45.776 242.4 0.9 331 15.7
2005-01-17 09:07:44 51°19.92 2°45.775 242.5 1 320 15.7
2005-01-17 09:07:48 51°19.92 2°45.774 242.7 1 319 15.7
2005-01-17 09:07:56 51°19.922 2°45.771 242.7 1.1 317 15.8
2005-01-17 09:08:00 51°19.923 2°45.77 242.9 1.1 322 15.8
2005-01-17 09:08:06 51°19.925 2°45.768 243.8 1.1 324 15.8
2005-01-17 09:08:11 51°19.926 2°45.766 245.7 1.1 326 15.8
2005-01-17 09:08:16 51°19.927 2°45.765 246.6 1.1 330 15.9
2005-01-17 09:08:21 51°19.929 2°45.764 248 1.1 333 15.9
2005-01-17 09:08:26 51°19.93 2°45.763 249.4 1.1 335 15.9
2005-01-17 09:08:30 51°19.931 2°45.762 250.8 1.1 324 15.8
2005-01-17 09:08:36 51°19.933 2°45.76 251.6 1.2 322 15.7
2005-01-17 09:08:40 51°19.933 2°45.758 251.2 1.1 313 15.7
2005-01-17 09:08:46 51°19.935 2°45.756 251.1 1.3 318 15.7
2005-01-17 09:08:51 51°19.936 2°45.755 250.8 1.2 317 15.6
2005-01-17 09:08:56 51°19.938 2°45.753 251.1 1.1 320 15.6
2005-01-17 09:09:01 51°19.939 2°45.751 252 1.1 326 15.6
2005-01-17 09:09:06 51°19.94 2°45.749 252.8 1.2 329 15.6
2005-01-17 09:09:11 51°19.941 2°45.748 253.5 1.3 328 15.6
2005-01-17 09:09:16 51°19.943 2°45.747 255.5 1.3 335 15.6
2005-01-17 09:09:20 51°19.944 2°45.746 257.1 1.2 338 15.6
2005-01-17 09:09:26 51°19.947 2°45.745 259.8 1.3 338 15.4
2005-01-17 09:09:30 51°19.948 2°45.744 261.3 1.3 343 15.5
2005-01-17 09:09:36 51°19.95 2°45.743 263.1 1.4 342 15.4
2005-01-17 09:09:41 51°19.952 2°45.742 265.1 1.3 343 15.4
2005-01-17 09:09:45 51°19.953 2°45.742 266.6 1.3 342 15.3
2005-01-17 09:09:50 51°19.955 2°45.741 268.4 1.3 344 15.3
2005-01-17 09:09:56 51°19.958 2°45.74 269.4 1.3 348 15.3
2005-01-17 09:10:01 51°19.959 2°45.739 271.1 1.3 340 15.3
2005-01-17 09:10:06 51°19.961 2°45.736 272.5 1.5 327 15.3
2005-01-17 09:10:11 51°19.963 2°45.733 271.8 1.7 320 15
2005-01-17 09:10:16 51°19.964 2°45.729 270.1 1.9 305 14.9
2005-01-17 09:10:21 51°19.965 2°45.724 267.1 2.3 292 14.5
2005-01-17 09:10:26 51°19.966 2°45.719 263.7 2.5 286 13.6
2005-01-17 09:10:31 51°19.966 2°45.713 259 2.6 280 12.7
2005-01-17 09:10:36 51°19.966 2°45.707 255.1 2.6 271 11.9
2005-01-17 09:10:41 51°19.965 2°45.702 248.3 2.7 261 12.3
2005-01-17 09:10:46 51°19.964 2°45.696 243.7 2.7 254 12.8
2005-01-17 09:10:51 51°19.963 2°45.69 238 2.8 251 13.2
2005-01-17 09:10:56 51°19.961 2°45.685 232.1 2.9 238 13.6
2005-01-17 09:11:00 51°19.958 2°45.681 226.3 2.9 231 14.1
2005-01-17 09:11:06 51°19.954 2°45.676 220.8 2.9 224 14.4
2005-01-17 09:11:08 51°19.953 2°45.674 213.8 2.9 215 14.4
2005-01-17 09:11:16 51°19.947 2°45.67 208.9 3 208 14.6
2005-01-17 09:11:21 51°19.943 2°45.669 200.5 2.9 193 14.7
2005-01-17 09:11:26 51°19.939 2°45.668 194.8 3 185 14.4
2005-01-17 09:11:30 51°19.935 2°45.669 187.1 3 181 14.4
2005-01-17 09:11:36 51°19.93 2°45.671 178.1 3.1 167 14.6
2005-01-17 09:11:41 51°19.927 2°45.674 170 3.2 159 14.6
2005-01-17 09:11:46 51°19.923 2°45.678 163.7 3.3 150 14.7
2005-01-17 09:11:52 51°19.919 2°45.685 155.5 3.4 141 14.5
2005-01-17 09:11:56 51°19.917 2°45.69 147.3 3.4 134 14.1
2005-01-17 09:12:01 51°19.914 2°45.697 138.6 3.7 121 13.6
2005-01-17 09:12:06 51°19.912 2°45.706 130.6 3.8 114 12.9
2005-01-17 09:12:10 51°19.911 2°45.713 123.6 3.9 111 12.1
2005-01-17 09:12:16 51°19.911 2°45.723 115 3.9 111 11.7
2005-01-17 09:12:21 51°19.911 2°45.733 107.4 4.2 90 14.1
2005-01-17 09:12:26 51°19.912 2°45.743 99.5 4.4 83 15.2
2005-01-17 09:12:31 51°19.914 2°45.753 92.1 4.7 77 15.7
2005-01-17 09:12:36 51°19.916 2°45.762 87 4.5 74 15.8
2005-01-17 09:12:40 51°19.917 2°45.768 83.5 4.1 69 15.8
2005-01-17 09:12:46 51°19.92 2°45.777 82 3.6 68 15.8
2005-01-17 09:12:51 51°19.922 2°45.783 83 3.1 67 15.4
2005-01-17 09:12:56 51°19.923 2°45.789 86.6 2.8 70 15.4
2005-01-17 09:13:00 51°19.924 2°45.792 91.1 2.3 68 15.2
2005-01-17 09:13:06 51°19.925 2°45.797 94.1 1.9 64 15.1
2005-01-17 09:13:11 51°19.926 2°45.799 98.5 1.4 59 15.1
2005-01-17 09:13:16 51°19.927 2°45.8 102.4 1.2 45 14.9
2005-01-17 09:13:21 51°19.929 2°45.802 106.3 1.1 32 14.8
2005-01-17 09:13:26 51°19.93 2°45.803 108.2 1 31 14.8
2005-01-17 09:13:30 51°19.931 2°45.804 109.9 1 32 15
2005-01-17 09:13:36 51°19.932 2°45.805 111.1 1 31 14.8
2005-01-17 09:13:41 51°19.934 2°45.806 112.5 1 33 14.7
2005-01-17 09:13:46 51°19.935 2°45.807 113.3 1 29 14.8
2005-01-17 09:13:51 51°19.936 2°45.808 114.7 0.9 31 14.9
2005-01-17 09:13:56 51°19.937 2°45.809 115.5 0.9 29 14.7
2005-01-17 09:14:00 51°19.938 2°45.81 116.6 0.9 33 14.8
2005-01-17 09:14:06 51°19.939 2°45.811 117.5 1 32 14.8
2005-01-17 09:14:11 51°19.94 2°45.813 118.3 1 30 14.8
2005-01-17 09:14:16 51°19.941 2°45.814 119.1 0.9 34 14.7
2005-01-17 09:14:21 51°19.943 2°45.815 120.7 1.1 35 14.6
2005-01-17 09:14:26 51°19.944 2°45.816 121.2 1 40 14.8
2005-01-17 09:14:32 51°19.945 2°45.818 121.8 1 40 14.7
2005-01-17 09:14:36 51°19.946 2°45.819 122.6 1 38 14.6
2005-01-17 09:14:41 51°19.947 2°45.821 123.4 0.9 44 14.5
2005-01-17 09:14:46 51°19.948 2°45.822 124.2 1 41 14.5
2005-01-17 09:14:51 51°19.949 2°45.824 124.5 1 38 14.8
2005-01-17 09:14:56 51°19.95 2°45.825 124.9 1.1 41 14.7
2005-01-17 09:15:00 51°19.951 2°45.826 125.7 0.9 43 14.6
2005-01-17 09:15:05 51°19.952 2°45.828 126.2 1 44 14.7
2005-01-17 09:15:11 51°19.953 2°45.829 127 1 44 14.6
2005-01-17 09:15:16 51°19.954 2°45.831 127.1 1 39 15
2005-01-17 09:15:21 51°19.956 2°45.833 127.8 1 45 15.1
2005-01-17 09:15:26 51°19.957 2°45.834 128.5 0.9 39 15
2005-01-17 09:15:31 51°19.958 2°45.834 129.1 0.9 48 14.9
2005-01-17 09:15:36 51°19.959 2°45.836 129.3 0.9 45 14.7
2005-01-17 09:15:40 51°19.96 2°45.837 129.9 0.9 40 15.2
2005-01-17 09:15:46 51°19.96 2°45.84 130.9 0.9 38 15.4
2005-01-17 09:15:52 51°19.962 2°45.841 131.8 0.9 38 15.4
2005-01-17 09:15:56 51°19.963 2°45.842 132.3 0.9 48 15.4
2005-01-17 09:16:01 51°19.964 2°45.843 132.4 1 49 15.5
2005-01-17 09:16:06 51°19.964 2°45.845 132.3 1 49 15.5
2005-01-17 09:16:08 51°19.965 2°45.846 132.8 1 52 15.4
2005-01-17 09:16:16 51°19.966 2°45.849 132.9 1.2 44 15.2
2005-01-17 09:16:21 51°19.967 2°45.85 133 1 51 15.2
2005-01-17 09:16:26 51°19.968 2°45.852 133.7 1.1 45 15.2
2005-01-17 09:16:32 51°19.969 2°45.854 133.6 1 50 15.2
2005-01-17 09:16:36 51°19.97 2°45.855 133.9 1.1 47 15.2
2005-01-17 09:16:41 51°19.971 2°45.857 134.2 1 50 15.1
2005-01-17 09:16:46 51°19.972 2°45.858 134.2 0.9 51 15
2005-01-17 09:16:50 51°19.973 2°45.859 134.3 1 46 14.9
2005-01-17 09:16:56 51°19.974 2°45.861 134.4 0.9 45 14.9
2005-01-17 09:17:01 51°19.975 2°45.863 134.8 1 47 14.8
2005-01-17 09:17:06 51°19.976 2°45.864 134.8 0.9 45 15.1
2005-01-17 09:17:10 51°19.976 2°45.865 134.7 0.9 47 14.9
2005-01-17 09:17:16 51°19.978 2°45.867 135 0.9 46 14.8
2005-01-17 09:17:20 51°19.978 2°45.868 135.2 0.9 41 14.7
2005-01-17 09:17:26 51°19.98 2°45.869 135.5 0.9 40 14.6
2005-01-17 09:17:31 51°19.981 2°45.87 135.5 0.9 40 14.5
2005-01-17 09:17:36 51°19.982 2°45.872 135.4 0.9 37 14.8
2005-01-17 09:17:41 51°19.983 2°45.873 135.2 0.9 37 14.7
2005-01-17 09:17:44 51°19.984 2°45.873 134.9 0.9 33 14.5
2005-01-17 09:17:48 51°19.985 2°45.875 135 0.9 36 14.5
2005-01-17 09:17:56 51°19.986 2°45.877 135.1 0.9 34 14.6
2005-01-17 09:18:00 51°19.987 2°45.878 135.6 0.9 40 15
2005-01-17 09:18:06 51°19.988 2°45.879 135.6 0.9 37 14.9
2005-01-17 09:18:11 51°19.989 2°45.88 135.5 1 36 15.2
2005-01-17 09:18:16 51°19.99 2°45.882 135.7 0.9 40 15.1
2005-01-17 09:18:21 51°19.992 2°45.882 135.6 1 41 14.9
2005-01-17 09:18:26 51°19.993 2°45.884 135 0.9 42 14.8
2005-01-17 09:18:31 51°19.994 2°45.886 135 1 38 14.9
2005-01-17 09:18:36 51°19.995 2°45.887 135.1 1.1 39 14.9
2005-01-17 09:18:41 51°19.996 2°45.889 135.2 1.1 42 15.2
2005-01-17 09:18:46 51°19.997 2°45.89 135 1 38 15.5
2005-01-17 09:18:50 51°19.998 2°45.891 134.9 1.1 40 15.3
2005-01-17 09:18:56 51°19.999 2°45.893 134.9 1 41 15.1
2005-01-17 09:19:01 51°20.001 2°45.894 134.9 1.1 41 14.9
2005-01-17 09:19:06 51°20.002 2°45.896 134.4 1 39 14.7
2005-01-17 09:19:11 51°20.003 2°45.897 133.7 0.9 40 14.6
2005-01-17 09:19:16 51°20.004 2°45.899 133.6 1 42 14.7
2005-01-17 09:19:21 51°20.005 2°45.9 133.7 1.1 48 14.7
2005-01-17 09:19:26 51°20.005 2°45.902 134.1 1 51 14.5
2005-01-17 09:19:32 51°20.006 2°45.905 134.9 1.2 58 14.3
2005-01-17 09:19:36 51°20.007 2°45.907 135.6 1.1 67 14.1
2005-01-17 09:19:41 51°20.007 2°45.909 137.1 1.3 73 13.8
2005-01-17 09:19:46 51°20.007 2°45.912 138.7 1.3 84 13.4
2005-01-17 09:19:51 51°20.006 2°45.915 140.3 1.2 100 13.1
2005-01-17 09:19:56 51°20.006 2°45.918 144.8 1.4 107 12.8
2005-01-17 09:20:00 51°20.005 2°45.92 147.4 1.5 123 12.6
2005-01-17 09:20:06 51°20.003 2°45.924 151.3 1.6 122 12.3
2005-01-17 09:20:09 51°20.002 2°45.926 155.6 1.7 130 12.1
2005-01-17 09:20:16 51°19.999 2°45.93 159 1.8 140 11.9
2005-01-17 09:20:21 51°19.997 2°45.931 162.7 1.9 137 11.6
2005-01-17 09:20:26 51°19.995 2°45.932 167.5 1.9 148 11.5
2005-01-17 09:20:31 51°19.992 2°45.934 172 2 150 11.5
2005-01-17 09:20:36 51°19.99 2°45.935 176.6 1.8 167 11.4
2005-01-17 09:20:40 51°19.988 2°45.936 179.5 1.4 167 11.5
2005-01-17 09:20:46 51°19.986 2°45.937 181.3 1.2 165 11.7
2005-01-17 09:20:52 51°19.985 2°45.938 182.1 1.2 165 12
2005-01-17 09:20:56 51°19.985 2°45.939 182.1 0.8 152 12.3
2005-01-17 09:21:01 51°19.985 2°45.94 181.3 0.6 111 12.5
2005-01-17 09:21:06 51°19.984 2°45.941 181.1 0.4 123 12.8
2005-01-17 09:21:11 51°19.984 2°45.942 180.2 0.4 123 12.9
2005-01-17 09:21:16 51°19.984 2°45.943 180 0.4 104 13.2
2005-01-17 09:21:21 51°19.984 2°45.943 179.5 0.4 104 13.2
2005-01-17 09:21:26 51°19.985 2°45.944 178.6 0.4 81 13.3
2005-01-17 09:21:32 51°19.985 2°45.946 177.8 0.5 61 13.5
2005-01-17 09:21:36 51°19.986 2°45.946 176.3 0.6 64 13.7
2005-01-17 09:21:41 51°19.986 2°45.947 175.2 0.6 51 14
2005-01-17 09:21:46 51°19.987 2°45.948 174.1 0.6 44 14.2
2005-01-17 09:21:49 51°19.987 2°45.949 172.7 0.8 47 14.3
2005-01-17 09:21:56 51°19.989 2°45.951 171 0.7 44 14.5
2005-01-17 09:22:01 51°19.989 2°45.952 169.3 0.9 36 14.5
2005-01-17 09:22:06 51°19.99 2°45.953 167 0.9 40 14.6
2005-01-17 09:22:10 51°19.991 2°45.954 164.8 0.9 36 14.7
2005-01-17 09:22:16 51°19.993 2°45.955 162.9 0.9 34 14.8
2005-01-17 09:22:21 51°19.994 2°45.956 160 0.9 32 14.8
2005-01-17 09:22:26 51°19.995 2°45.957 157.5 1 29 14.9
2005-01-17 09:22:31 51°19.996 2°45.958 154.8 1 32 15.1
2005-01-17 09:22:36 51°19.997 2°45.959 151.8 1 29 15.1
2005-01-17 09:22:41 51°19.999 2°45.961 148.9 1.1 32 15
2005-01-17 09:22:46 51°20 2°45.961 146.3 1 31 15
2005-01-17 09:22:51 51°20.001 2°45.963 142.4 1 25 15
2005-01-17 09:22:56 51°20.003 2°45.963 139.5 1.1 25 15
2005-01-17 09:23:01 51°20.004 2°45.965 138.1 1 30 14.9
2005-01-17 09:23:06 51°20.005 2°45.966 136 1 26 14.9
2005-01-17 09:23:11 51°20.007 2°45.967 133.5 0.9 28 15
2005-01-17 09:23:16 51°20.008 2°45.968 131.7 1 28 15.1
2005-01-17 09:23:21 51°20.009 2°45.969 130 1.1 26 15.2
2005-01-17 09:23:26 51°20.011 2°45.969 128.4 1 30 15.2
2005-01-17 09:23:31 51°20.012 2°45.971 126.2 1 30 15.2
2005-01-17 09:23:36 51°20.013 2°45.972 124.5 1.1 29 15.1
2005-01-17 09:23:41 51°20.015 2°45.974 123.4 1.2 25 15.1
2005-01-17 09:23:46 51°20.016 2°45.975 121.9 1.2 30 14.9
2005-01-17 09:23:51 51°20.018 2°45.976 120.7 1.1 26 15
2005-01-17 09:23:56 51°20.019 2°45.977 119.3 1.2 31 14.8
2005-01-17 09:24:00 51°20.02 2°45.979 118.4 1.1 37 14.9
2005-01-17 09:24:06 51°20.022 2°45.98 117.8 1.2 31 14.8
2005-01-17 09:24:08 51°20.022 2°45.98 116.9 1 35 15
2005-01-17 09:24:16 51°20.024 2°45.983 117 1 38 14.9
2005-01-17 09:24:21 51°20.026 2°45.984 117.1 1 34 14.8
2005-01-17 09:24:26 51°20.027 2°45.985 117 1.1 35 14.9
2005-01-17 09:24:32 51°20.028 2°45.987 117 1 37 14.9
2005-01-17 09:24:36 51°20.029 2°45.988 117.2 1.1 34 14.9
2005-01-17 09:24:41 51°20.031 2°45.989 117.5 1 35 14.9
2005-01-17 09:24:46 51°20.032 2°45.991 117.9 1.1 32 15
2005-01-17 09:24:49 51°20.032 2°45.991 118.1 1 37 14.8
2005-01-17 09:24:56 51°20.034 2°45.994 118.1 1.1 35 14.7
2005-01-17 09:25:00 51°20.035 2°45.995 118.3 1 39 14.9
2005-01-17 09:25:06 51°20.036 2°45.996 119.1 1 35 14.7
2005-01-17 09:25:10 51°20.037 2°45.998 119.7 1 37 14.5
2005-01-17 09:25:16 51°20.039 2°45.999 120.3 1 39 14.8
2005-01-17 09:25:21 51°20.04 2°46.001 120.3 1 36 14.7
2005-01-17 09:25:26 51°20.041 2°46.002 120.8 1 37 14.5
2005-01-17 09:25:30 51°20.041 2°46.003 121.2 1 38 14.9
2005-01-17 09:25:36 51°20.043 2°46.005 121.6 1 38 15.3
2005-01-17 09:25:41 51°20.044 2°46.007 122 1.1 57 15.5
2005-01-17 09:25:46 51°20.044 2°46.01 123.2 1.2 66 16
2005-01-17 09:25:51 51°20.044 2°46.015 126 1.9 91 16.2
2005-01-17 09:25:56 51°20.043 2°46.02 129.9 2.3 103 16.1
2005-01-17 09:26:00 51°20.041 2°46.025 133.6 3.1 115 16
2005-01-17 09:26:06 51°20.038 2°46.033 135.8 3.4 122 15.8
2005-01-17 09:26:10 51°20.035 2°46.038 139.4 4.1 128 15.5
2005-01-17 09:26:16 51°20.029 2°46.047 143.2 4.3 133 15.2
2005-01-17 09:26:20 51°20.025 2°46.053 147.7 5 139 14.8
2005-01-17 09:26:26 51°20.018 2°46.061 150.8 5.3 142 14.6
2005-01-17 09:26:32 51°20.009 2°46.069 153.6 5.5 148 14.4
2005-01-17 09:26:36 51°20.004 2°46.072 157.6 5.7 152 14.4
2005-01-17 09:26:40 51°19.998 2°46.075 166.2 5.7 164 14.3
2005-01-17 09:26:46 51°19.988 2°46.077 172.2 5.6 171 14.3
2005-01-17 09:26:51 51°19.98 2°46.076 180.1 5.6 182 14.3
2005-01-17 09:26:56 51°19.973 2°46.073 188.2 5.7 185 14.6
2005-01-17 09:27:01 51°19.965 2°46.068 198.4 5.8 198 14.9
2005-01-17 09:27:05 51°19.959 2°46.064 204.5 5.9 204 14.7
2005-01-17 09:27:09 51°19.953 2°46.059 209.1 6.3 208 13.4
2005-01-17 09:27:16 51°19.942 2°46.047 211.9 6.5 211 13.1
2005-01-17 09:27:21 51°19.935 2°46.039 214.1 6.6 212 13.6
2005-01-17 09:27:26 51°19.926 2°46.029 216.1 7.2 216 14.2
2005-01-17 09:27:32 51°19.916 2°46.016 218.1 8 218 14.7
2005-01-17 09:27:36 51°19.908 2°46.005 220 8.2 219 14.8
2005-01-17 09:27:41 51°19.898 2°45.991 222 9.3 222 14.8
2005-01-17 09:27:46 51°19.889 2°45.975 224.2 9.8 224 13.2
2005-01-17 09:27:49 51°19.882 2°45.966 225.2 10.5 223 12.9
2005-01-17 09:27:56 51°19.866 2°45.943 224.1 10.9 222 12.4
2005-01-17 09:28:00 51°19.856 2°45.93 221.8 11.4 219 13.6
2005-01-17 09:28:06 51°19.841 2°45.91 221 11.8 220 14
2005-01-17 09:28:10 51°19.83 2°45.896 220.4 12.3 218 13.7
2005-01-17 09:28:16 51°19.813 2°45.876 220 12.5 219 11.5
2005-01-17 09:28:21 51°19.8 2°45.858 219.9 12.6 218 13.1
2005-01-17 09:28:26 51°19.786 2°45.841 219.8 12.8 218 13.1
2005-01-17 09:28:31 51°19.771 2°45.823 219.3 12.8 217 12
2005-01-17 09:28:36 51°19.757 2°45.807 218.9 12.9 217 11
2005-01-17 09:28:40 51°19.746 2°45.792 219.1 13 218 12.9
2005-01-17 09:28:46 51°19.73 2°45.769 221.1 13 220 13.6
2005-01-17 09:28:50 51°19.719 2°45.753 223.7 13.1 224 13.4
2005-01-17 09:28:56 51°19.704 2°45.728 225.8 13.2 225 11.9
2005-01-17 09:29:01 51°19.692 2°45.708 227.5 13.2 226 12.5
2005-01-17 09:29:06 51°19.678 2°45.687 226.7 13 223 11.9
2005-01-17 09:29:11 51°19.664 2°45.668 224.5 13 222 11.8
2005-01-17 09:29:16 51°19.651 2°45.65 222.4 13.1 221 13
2005-01-17 09:29:21 51°19.637 2°45.632 222 13.1 221 12.7
2005-01-17 09:29:26 51°19.623 2°45.612 221.9 13.1 220 11.4
2005-01-17 09:29:30 51°19.612 2°45.597 221.8 13.1 221 12.3
2005-01-17 09:29:36 51°19.595 2°45.575 222 13.1 221 12.3
2005-01-17 09:29:41 51°19.582 2°45.557 222 13.1 220 11.7
2005-01-17 09:29:46 51°19.567 2°45.538 221.5 13 220 11.7
2005-01-17 09:29:51 51°19.554 2°45.519 221.3 13.1 220 12.3
2005-01-17 09:29:56 51°19.539 2°45.501 221 13.1 219 12.6
2005-01-17 09:30:01 51°19.526 2°45.482 221.2 13.2 220 13
2005-01-17 09:30:06 51°19.512 2°45.464 221.4 13.2 220 12.7
2005-01-17 09:30:11 51°19.497 2°45.445 221.8 13.1 220 11.4
2005-01-17 09:30:16 51°19.484 2°45.426 221.3 13.1 220 12.3
2005-01-17 09:30:21 51°19.469 2°45.407 221.3 13.1 220 12.4
2005-01-17 09:30:26 51°19.456 2°45.389 221.9 13.2 220 11.7
2005-01-17 09:30:31 51°19.442 2°45.37 221.4 13.2 220 10.6
2005-01-17 09:30:36 51°19.428 2°45.352 221.6 13 220 10.4
2005-01-17 09:30:40 51°19.417 2°45.336 221.7 13 220 12.1
2005-01-17 09:30:46 51°19.401 2°45.315 221.8 13.1 220 12
2005-01-17 09:30:50 51°19.389 2°45.3 221.8 13.1 219 11.8
2005-01-17 09:30:56 51°19.373 2°45.277 222 13.2 219 10.7
2005-01-17 09:31:01 51°19.359 2°45.258 222 13.2 221 11.1
2005-01-17 09:31:05 51°19.348 2°45.243 222 13.1 221 9
2005-01-17 09:31:11 51°19.332 2°45.22 221.9 13 220 11.4
2005-01-17 09:31:16 51°19.318 2°45.203 221.8 13 221 12.4
2005-01-17 09:31:21 51°19.304 2°45.183 221.8 13.2 220 12.5
2005-01-17 09:31:26 51°19.29 2°45.164 221.9 13.3 221 11.5
2005-01-17 09:31:31 51°19.276 2°45.146 222.1 13.4 221 11.8
2005-01-17 09:31:36 51°19.262 2°45.126 222 13.1 221 11.4
2005-01-17 09:31:41 51°19.248 2°45.108 222.3 13.1 220 11.4
2005-01-17 09:31:46 51°19.234 2°45.088 221.9 13 220 11.3
2005-01-17 09:31:51 51°19.221 2°45.07 222 13.1 221 9.3
2005-01-17 09:31:56 51°19.207 2°45.05 222 13.1 221 11.2
2005-01-17 09:32:01 51°19.194 2°45.031 222.6 13.1 221 12.1
2005-01-17 09:32:06 51°19.18 2°45.013 222.5 13.2 221 11.9
2005-01-17 09:32:12 51°19.164 2°44.989 222.2 13.1 221 11.6
2005-01-17 09:32:16 51°19.152 2°44.974 222.6 13.1 221 10
2005-01-17 09:32:21 51°19.139 2°44.954 222.8 13.1 221 9.6
2005-01-17 09:32:26 51°19.125 2°44.936 222.7 13 221 11
2005-01-17 09:32:31 51°19.111 2°44.916 222.4 13 221 11.9
2005-01-17 09:32:36 51°19.098 2°44.897 222.7 13.1 222 11.6
2005-01-17 09:32:40 51°19.086 2°44.881 222.9 13.3 222 9.6
2005-01-17 09:32:46 51°19.071 2°44.858 223.1 13.3 222 10.9
2005-01-17 09:32:50 51°19.059 2°44.842 222.8 13.1 222 12
2005-01-17 09:32:56 51°19.043 2°44.819 222.8 13.2 222 12.2
2005-01-17 09:33:00 51°19.032 2°44.804 222.1 13.3 221 11.6
2005-01-17 09:33:06 51°19.015 2°44.78 222.6 13.3 222 11.1
2005-01-17 09:33:09 51°19.007 2°44.768 223 13.2 221 9.2
2005-01-17 09:33:16 51°18.988 2°44.742 222 13.1 220 11.1
2005-01-17 09:33:20 51°18.978 2°44.727 222 13 222 11.7
2005-01-17 09:33:26 51°18.961 2°44.704 222.1 13.1 221 10.4
2005-01-17 09:33:31 51°18.947 2°44.684 222.7 13.1 221 10.5
2005-01-17 09:33:36 51°18.933 2°44.664 223.1 13.1 221 10.2
2005-01-17 09:33:41 51°18.92 2°44.645 223.3 13.2 223 11.5
2005-01-17 09:33:46 51°18.906 2°44.625 223.2 13.2 222 12.2
2005-01-17 09:33:50 51°18.895 2°44.609 223.5 13.3 222 11.2
2005-01-17 09:33:56 51°18.879 2°44.586 223.3 13.3 222 11.7
2005-01-17 09:34:01 51°18.865 2°44.567 222.6 13.2 221 10.9
2005-01-17 09:34:06 51°18.852 2°44.547 222.6 13.2 221 11.6
2005-01-17 09:34:08 51°18.846 2°44.539 222.8 13.3 222 10.6
2005-01-17 09:34:16 51°18.825 2°44.508 223.4 13.2 222 11.5
2005-01-17 09:34:21 51°18.811 2°44.488 223.4 13.1 223 11.5
2005-01-17 09:34:26 51°18.799 2°44.469 223.6 12.6 223 12.2
2005-01-17 09:34:30 51°18.79 2°44.455 224.1 11.8 223 13.2
2005-01-17 09:34:36 51°18.776 2°44.435 224.2 11.6 223 12.4
2005-01-17 09:34:41 51°18.765 2°44.419 224.2 10.7 223 13